Observation data for Graham on 03/24/2019      Previous  Date  Next       Current Mesonet Observations  Soil Data  Daily Summary Page  Observations in Plain Language
KGHS 240500Z 21003KT 14/M04 A3001 RMK A01 T01381038  RH  029%=      5-min Rain = 0
KGHS 240505Z 21003KT 14/M04 A3001 RMK A01 T01371042  RH  029%=      5-min Rain = 0
KGHS 240510Z 19001KT 14/M04 A3001 RMK A01 T01351040  RH  029%=      5-min Rain = 0
KGHS 240515Z 17001KT 14/M04 A3001 RMK A01 T01351038  RH  030%=      5-min Rain = 0
KGHS 240520Z 18002KT 13/M04 A30 RMK A01 T01331037  RH  031%=      5-min Rain = 0
KGHS 240525Z 19002KT 13/M03 A30 RMK A01 T01291034  RH  032%=      5-min Rain = 0
KGHS 240530Z 20002KT 13/M03 A30 RMK A01 T01251033  RH  033%=      5-min Rain = 0
KGHS 240535Z 22002KT 12/M03 A30 RMK A01 T01221033  RH  034%=      5-min Rain = 0
KGHS 240540Z 22004KT 12/M03 A30 RMK A01 T01171031  RH  036%=      5-min Rain = 0
KGHS 240545Z 22004KT 11/M03 A3001 RMK A01 T01131030  RH  037%=      5-min Rain = 0
KGHS 240550Z 22004KT 11/M03 A3001 RMK A01 T01111030  RH  037%=      5-min Rain = 0
KGHS 240555Z 22006KT 11/M03 A3001 RMK A01 T01101031  RH  037%=      5-min Rain = 0
KGHS 240600Z 22006KT 11/M04 A3001 RMK A01 T01141044  RH  033%=      5-min Rain = 0
KGHS 240605Z 22006KT 13/M05 A30 RMK A01 T01251051  RH  029%=      5-min Rain = 0
KGHS 240610Z 22007KT 14/M05 A30 RMK A01 T01371052  RH  027%=      5-min Rain = 0
KGHS 240615Z 21006KT 15/M05 A30 RMK A01 T01461050  RH  026%=      5-min Rain = 0
KGHS 240620Z 21004KT 15/M05 A30 RMK A01 T01461047  RH  026%=      5-min Rain = 0
KGHS 240625Z 21004KT 14/M05 A30 RMK A01 T01431045  RH  027%=      5-min Rain = 0
KGHS 240630Z 20005KT 14/M05 A30 RMK A01 T01411046  RH  027%=      5-min Rain = 0
KGHS 240635Z 20004KT 14/M05 A30 RMK A01 T01411046  RH  027%=      5-min Rain = 0
KGHS 240640Z 20003KT 14/M04 A30 RMK A01 T01351043  RH  029%=      5-min Rain = 0
KGHS 240645Z 21003KT 13/M04 A30 RMK A01 T01291042  RH  030%=      5-min Rain = 0
KGHS 240650Z 21004KT 13/M04 A30 RMK A01 T01281043  RH  030%=      5-min Rain = 0
KGHS 240655Z 21004KT 14/M05 A2999 RMK A01 T01381045  RH  028%=      5-min Rain = 0
KGHS 240700Z 23005KT 14/M04 A2999 RMK A01 T01371041  RH  029%=      5-min Rain = 0
KGHS 240705Z 22006KT 14/M05 A2999 RMK A01 T01371045  RH  028%=      5-min Rain = 0
KGHS 240710Z 23005KT 14/M04 A2999 RMK A01 T01411043  RH  028%=      5-min Rain = 0
KGHS 240715Z 22006KT 14/M04 A2999 RMK A01 T01381041  RH  029%=      5-min Rain = 0
KGHS 240720Z 22006KT 13/M04 A2999 RMK A01 T01341040  RH  030%=      5-min Rain = 0
KGHS 240725Z 24008KT 13/M04 A2999 RMK A01 T01281041  RH  031%=      5-min Rain = 0
KGHS 240730Z 24009KT 13/M04 A2999 RMK A01 T01251038  RH  032%=      5-min Rain = 0
KGHS 240735Z 25009KT 13/M04 A2999 RMK A01 T01261039  RH  032%=      5-min Rain = 0
KGHS 240740Z 24010KT 13/M04 A2999 RMK A01 T01291039  RH  031%=      5-min Rain = 0
KGHS 240745Z 23011KT 13/M04 A2999 RMK A01 T01311039  RH  031%=      5-min Rain = 0
KGHS 240750Z 24011KT 13/M04 A2999 RMK A01 T01321039  RH  030%=      5-min Rain = 0
KGHS 240755Z 24010KT 13/M04 A2999 RMK A01 T01321038  RH  031%=      5-min Rain = 0
KGHS 240800Z 24010KT 13/M04 A2998 RMK A01 T01281036  RH  032%=      5-min Rain = 0
KGHS 240805Z 24009KT 12/M04 A2998 RMK A01 T01241037  RH  033%=      5-min Rain = 0
KGHS 240810Z 24008KT 12/M04 A2999 RMK A01 T01211035  RH  034%=      5-min Rain = 0
KGHS 240815Z 22006KT 12/M04 A2999 RMK A01 T01201036  RH  034%=      5-min Rain = 0
KGHS 240820Z 18001KT 12/M04 A2999 RMK A01 T01211036  RH  033%=      5-min Rain = 0
KGHS 240825Z 23002KT 12/M03 A2999 RMK A01 T01181033  RH  035%=      5-min Rain = 0
KGHS 240830Z 22004KT 11/M03 A2999 RMK A01 T01131032  RH  036%=      5-min Rain = 0
KGHS 240835Z 23008KT 12/M04 A2999 RMK A01 T01161037  RH  034%=      5-min Rain = 0
KGHS 240840Z 23008KT 12/M04 A2999 RMK A01 T01231036  RH  033%=      5-min Rain = 0
KGHS 240845Z 24009KT 13/M04 A2999 RMK A01 T01251035  RH  033%=      5-min Rain = 0
KGHS 240850Z 23009KT 12/M03 A2999 RMK A01 T01231033  RH  034%=      5-min Rain = 0
KGHS 240855Z 23009KT 12/M03 A2999 RMK A01 T01211033  RH  034%=      5-min Rain = 0
KGHS 240900Z 24009KT 12/M03 A2999 RMK A01 T01161028  RH  037%=      5-min Rain = 0
KGHS 240905Z 24011KT 11/M03 A2999 RMK A01 T01141031  RH  036%=      5-min Rain = 0
KGHS 240910Z 23009KT 11/M03 A2999 RMK A01 T01141030  RH  037%=      5-min Rain = 0
KGHS 240915Z 24010KT 11/M03 A2999 RMK A01 T01121028  RH  038%=      5-min Rain = 0
KGHS 240920Z 24009KT 11/M03 A2999 RMK A01 T01111029  RH  038%=      5-min Rain = 0
KGHS 240925Z 25008KT 11/M03 A2999 RMK A01 T01111030  RH  037%=      5-min Rain = 0
KGHS 240930Z 25009KT 11/M03 A2999 RMK A01 T01131030  RH  037%=      5-min Rain = 0
KGHS 240935Z 25009KT 11/M02 A2999 RMK A01 T01131024  RH  039%=      5-min Rain = 0
KGHS 240940Z 26008KT 11/M02 A2999 RMK A01 T01131018  RH  040%=      5-min Rain = 0
KGHS 240945Z 26009G14KT 11/M01 A2999 RMK A01 T01111013  RH  043%=      5-min Rain = 0
KGHS 240950Z 27007KT 11/M01 A2999 RMK A01 T01081009  RH  045%=      5-min Rain = 0
KGHS 240955Z 27007KT 11/M01 A2999 RMK A01 T01051006  RH  046%=      5-min Rain = 0
KGHS 241000Z 26008KT 10/00 A2999 RMK A01 T01030003  RH  050%=      5-min Rain = 0
KGHS 241005Z 26008KT 11/02 A2999 RMK A01 T01070019  RH  055%=      5-min Rain = 0
KGHS 241010Z 26009KT 11/02 A2999 RMK A01 T01070023  RH  057%=      5-min Rain = 0
KGHS 241015Z 27009KT 11/03 A2999 RMK A01 T01070033  RH  061%=      5-min Rain = 0
KGHS 241020Z 28009KT 11/03 A30 RMK A01 T01060026  RH  059%=      5-min Rain = 0
KGHS 241025Z 28010KT 10/02 A30 RMK A01 T01000023  RH  060%=      5-min Rain = 0
KGHS 241030Z 29010KT 10/02 A30 RMK A01 T00970021  RH  060%=      5-min Rain = 0
KGHS 241035Z 29011KT 10/02 A30 RMK A01 T00970022  RH  060%=      5-min Rain = 0
KGHS 241040Z 29011KT 10/02 A30 RMK A01 T00970020  RH  060%=      5-min Rain = 0
KGHS 241045Z 29011KT 10/02 A30 RMK A01 T00980019  RH  059%=      5-min Rain = 0
KGHS 241050Z 28010KT 10/02 A3001 RMK A01 T00980017  RH  058%=      5-min Rain = 0
KGHS 241055Z 28011KT 10/01 A3001 RMK A01 T00960013  RH  057%=      5-min Rain = 0
KGHS 241100Z 28011KT 09/00 A3001 RMK A01 T00930003  RH  054%=      5-min Rain = 0
KGHS 241105Z 27010KT 09/M00 A3001 RMK A01 T00931004  RH  051%=      5-min Rain = 0
KGHS 241110Z 27010KT 09/M01 A3001 RMK A01 T00911005  RH  052%=      5-min Rain = 0
KGHS 241115Z 26012KT 09/M00 A3001 RMK A01 T00931002  RH  052%=      5-min Rain = 0
KGHS 241120Z 27011KT 09/00 A3001 RMK A01 T009400-0  RH  052%=      5-min Rain = 0
KGHS 241125Z 27010KT 09/M00 A3001 RMK A01 T00911001  RH  053%=      5-min Rain = 0
KGHS 241130Z 28011KT 09/M00 A3001 RMK A01 T00871004  RH  053%=      5-min Rain = 0
KGHS 241135Z 27010KT 09/M01 A3001 RMK A01 T00851010  RH  052%=      5-min Rain = 0
KGHS 241140Z 27010KT 08/M01 A3001 RMK A01 T00841012  RH  051%=      5-min Rain = 0
KGHS 241145Z 27011KT 08/M02 A3001 RMK A01 T00841015  RH  050%=      5-min Rain = 0
KGHS 241150Z 27011KT 09/M02 A3001 RMK A01 T00881015  RH  049%=      5-min Rain = 0
KGHS 241155Z 27011KT 09/M01 A3001 RMK A01 T00891012  RH  050%=      5-min Rain = 0
KGHS 241200Z 27011KT 09/M01 A3001 RMK A01 T00881013  RH  050%=      5-min Rain = 0
KGHS 241205Z 27011KT 09/M02 A3001 RMK A01 T00881018  RH  048%=      5-min Rain = 0
KGHS 241210Z 27012KT 09/M02 A3001 RMK A01 T00881021  RH  047%=      5-min Rain = 0
KGHS 241215Z 27012KT 09/M02 A3001 RMK A01 T00901019  RH  047%=      5-min Rain = 0
KGHS 241220Z 28011KT 09/M01 A3002 RMK A01 T00901013  RH  049%=      5-min Rain = 0
KGHS 241225Z 28012KT 09/M01 A3002 RMK A01 T00891008  RH  051%=      5-min Rain = 0
KGHS 241230Z 31011KT 09/M01 A3002 RMK A01 T00901007  RH  051%=      5-min Rain = 0
KGHS 241235Z 29011KT 09/M01 A3002 RMK A01 T00881010  RH  051%=      5-min Rain = 0
KGHS 241240Z 30013KT 09/M01 A3002 RMK A01 T00881012  RH  050%=      5-min Rain = 0
KGHS 241245Z 29012KT 09/M02 A3002 RMK A01 T00891018  RH  047%=      5-min Rain = 0
KGHS 241250Z 30011KT 09/M02 A3002 RMK A01 T00901023  RH  045%=      5-min Rain = 0
KGHS 241255Z 29010KT 09/M03 A3002 RMK A01 T00911030  RH  043%=      5-min Rain = 0
KGHS 241300Z 30012KT 09/M03 A3002 RMK A01 T00931034  RH  041%=      5-min Rain = 0
KGHS 241305Z 29010KT 09/M03 A3002 RMK A01 T00921033  RH  041%=      5-min Rain = 0
KGHS 241310Z 29011KT 09/M04 A3003 RMK A01 T00931035  RH  040%=      5-min Rain = 0
KGHS 241315Z 30009KT 09/M03 A3003 RMK A01 T00941034  RH  040%=      5-min Rain = 0
KGHS 241320Z 31012KT 10/M04 A3004 RMK A01 T00971036  RH  039%=      5-min Rain = 0
KGHS 241325Z 31013KT 10/M03 A3004 RMK A01 T00971034  RH  040%=      5-min Rain = 0
KGHS 241330Z 31014KT 10/M03 A3004 RMK A01 T00971031  RH  041%=      5-min Rain = 0
KGHS 241335Z 32014KT 10/M03 A3004 RMK A01 T00991030  RH  041%=      5-min Rain = 0
KGHS 241340Z 31013KT 10/M03 A3005 RMK A01 T01011026  RH  041%=      5-min Rain = 0
KGHS 241345Z 31012KT 10/M02 A3005 RMK A01 T01031024  RH  041%=      5-min Rain = 0
KGHS 241350Z 31012KT 11/M02 A3005 RMK A01 T01061024  RH  040%=      5-min Rain = 0
KGHS 241355Z 32013KT 11/M02 A3005 RMK A01 T01121022  RH  039%=      5-min Rain = 0
KGHS 241400Z 32014KT 11/M02 A3005 RMK A01 T01141020  RH  039%=      5-min Rain = 0
KGHS 241405Z 32013KT 11/M02 A3005 RMK A01 T01131016  RH  041%=      5-min Rain = 0
KGHS 241410Z 33013KT 12/M01 A3005 RMK A01 T01151014  RH  041%=      5-min Rain = 0
KGHS 241415Z 33015KT 12/M01 A3005 RMK A01 T01161012  RH  041%=      5-min Rain = 0
KGHS 241420Z 33015KT 12/M01 A3005 RMK A01 T01171010  RH  042%=      5-min Rain = 0
KGHS 241425Z 33015KT 12/M01 A3005 RMK A01 T01181009  RH  042%=      5-min Rain = 0
KGHS 241430Z 34014KT 12/M01 A3006 RMK A01 T01191005  RH  043%=      5-min Rain = 0
KGHS 241435Z 34011G16KT 12/M00 A3006 RMK A01 T01221001  RH  043%=      5-min Rain = 0
KGHS 241440Z 34011KT 12/00 A3007 RMK A01 T01240002  RH  044%=      5-min Rain = 0
KGHS 241445Z 34011KT 12/01 A3007 RMK A01 T01220006  RH  046%=      5-min Rain = 0
KGHS 241450Z 34010KT 12/01 A3007 RMK A01 T01220009  RH  047%=      5-min Rain = 0
KGHS 241455Z 34007KT 12/01 A3007 RMK A01 T01240012  RH  047%=      5-min Rain = 0
KGHS 241500Z 32006KT 13/01 A3007 RMK A01 T01250014  RH  047%=      5-min Rain = 0
KGHS 241505Z 34004KT 13/02 A3008 RMK A01 T01260017  RH  048%=      5-min Rain = 0
KGHS 241510Z 34007KT 13/02 A3007 RMK A01 T01270019  RH  048%=      5-min Rain = 0
KGHS 241515Z 34009KT 13/02 A3007 RMK A01 T01280022  RH  049%=      5-min Rain = 0
KGHS 241520Z 34007KT 13/02 A3008 RMK A01 T01290023  RH  049%=      5-min Rain = 0
KGHS 241525Z 35006KT 13/02 A3008 RMK A01 T01300024  RH  049%=      5-min Rain = 0
KGHS 241530Z 00004KT 13/03 A3009 RMK A01 T01310025  RH  049%=      5-min Rain = 0
KGHS 241535Z 35004KT 13/03 A3009 RMK A01 T01320027  RH  050%=      5-min Rain = 0
KGHS 241540Z 01004KT 13/03 A3009 RMK A01 T01340026  RH  049%=      5-min Rain = 0
KGHS 241545Z 02003KT 14/03 A301 RMK A01 T01360026  RH  048%=      5-min Rain = 0
KGHS 241550Z 02003KT 14/03 A301 RMK A01 T01370026  RH  048%=      5-min Rain = 0
KGHS 241555Z 02004KT 14/03 A301 RMK A01 T01380028  RH  048%=      5-min Rain = 0
KGHS 241600Z 35002KT 14/03 A301 RMK A01 T01400028  RH  047%=      5-min Rain = 0
KGHS 241605Z 01003KT 14/03 A301 RMK A01 T01400030  RH  048%=      5-min Rain = 0
KGHS 241610Z 01001KT 14/03 A301 RMK A01 T01430029  RH  047%=      5-min Rain = 0
KGHS 241615Z 03002KT 14/03 A301 RMK A01 T01440027  RH  046%=      5-min Rain = 0
KGHS 241620Z 07004KT 15/03 A3009 RMK A01 T01470031  RH  046%=      5-min Rain = 0
KGHS 241625Z 12003KT 15/03 A3009 RMK A01 T01510031  RH  045%=      5-min Rain = 0
KGHS 241630Z 11002KT 15/03 A3009 RMK A01 T01540030  RH  044%=      5-min Rain = 0
KGHS 241635Z 35001KT 16/03 A3009 RMK A01 T01550031  RH  044%=      5-min Rain = 0
KGHS 241640Z 35003KT 16/03 A3009 RMK A01 T01580033  RH  044%=      5-min Rain = 0
KGHS 241645Z 00004KT 16/03 A3009 RMK A01 T01620034  RH  043%=      5-min Rain = 0
KGHS 241650Z 02004KT 16/03 A3009 RMK A01 T01640025  RH  040%=      5-min Rain = 0
KGHS 241655Z 36004KT 16/02 A3009 RMK A01 T01640024  RH  040%=      5-min Rain = 0
KGHS 241700Z 35004KT 17/03 A3009 RMK A01 T01650026  RH  040%=      5-min Rain = 0
KGHS 241705Z 01004KT 17/03 A3009 RMK A01 T01690030  RH  040%=      5-min Rain = 0
KGHS 241710Z 01003KT 17/03 A3009 RMK A01 T01720029  RH  039%=      5-min Rain = 0
KGHS 241715Z 01003KT 18/03 A3009 RMK A01 T01760026  RH  037%=      5-min Rain = 0
KGHS 241720Z 01004KT 18/02 A3009 RMK A01 T01780022  RH  036%=      5-min Rain = 0
KGHS 241725Z 35004KT 18/02 A3009 RMK A01 T01790020  RH  035%=      5-min Rain = 0
KGHS 241730Z 29002KT 18/02 A3008 RMK A01 T01800024  RH  036%=      5-min Rain = 0
KGHS 241735Z 12002KT 19/03 A3008 RMK A01 T01890026  RH  034%=      5-min Rain = 0
KGHS 241740Z 14005KT 19/01 A3008 RMK A01 T01920012  RH  030%=      5-min Rain = 0
KGHS 241745Z 14005KT 20/01 A3008 RMK A01 T01950007  RH  029%=      5-min Rain = 0
KGHS 241750Z 15005KT 19/01 A3008 RMK A01 T01920007  RH  029%=      5-min Rain = 0
KGHS 241755Z 18003KT 19/01 A3008 RMK A01 T01930009  RH  030%=      5-min Rain = 0
KGHS 241800Z 21004KT 19/01 A3008 RMK A01 T01940010  RH  029%=      5-min Rain = 0
KGHS 241805Z 21002KT 20/01 A3008 RMK A01 T01950010  RH  029%=      5-min Rain = 0
KGHS 241810Z 17001KT 20/01 A3008 RMK A01 T01950011  RH  030%=      5-min Rain = 0
KGHS 241815Z 24004KT 20/02 A3008 RMK A01 T01990018  RH  030%=      5-min Rain = 0
KGHS 241820Z 18003KT 21/02 A3008 RMK A01 T02060018  RH  029%=      5-min Rain = 0
KGHS 241825Z 21005KT 21/02 A3008 RMK A01 T02090018  RH  029%=      5-min Rain = 0
KGHS 241830Z 27003KT 21/02 A3008 RMK A01 T02080017  RH  029%=      5-min Rain = 0
KGHS 241835Z 22002KT 21/02 A3008 RMK A01 T02050015  RH  029%=      5-min Rain = 0
KGHS 241840Z 27004KT 21/02 A3007 RMK A01 T02080019  RH  029%=      5-min Rain = 0
KGHS 241845Z 24004KT 21/02 A3007 RMK A01 T02110016  RH  028%=      5-min Rain = 0
KGHS 241850Z 25003KT 22/02 A3007 RMK A01 T02160021  RH  028%=      5-min Rain = 0
KGHS 241855Z 23005KT 22/02 A3006 RMK A01 T02210017  RH  026%=      5-min Rain = 0
KGHS 241900Z 23008KT 23/01 A3006 RMK A01 T02250013  RH  025%=      5-min Rain = 0
KGHS 241905Z 24006KT 22/02 A3006 RMK A01 T02240017  RH  026%=      5-min Rain = 0
KGHS 241910Z 19004G9KT 23/02 A3006 RMK A01 T02260017  RH  025%=      5-min Rain = 0
KGHS 241915Z 16004KT 23/02 A3005 RMK A01 T02330018  RH  025%=      5-min Rain = 0
KGHS 241920Z 20006KT 23/02 A3005 RMK A01 T02340015  RH  024%=      5-min Rain = 0
KGHS 241925Z 23008KT 24/00 A3005 RMK A01 T02360000  RH  021%=      5-min Rain = 0
KGHS 241930Z 22007KT 23/M01 A3005 RMK A01 T02331009  RH  020%=      5-min Rain = 0
KGHS 241935Z 25004G9KT 23/M00 A3005 RMK A01 T02321004  RH  021%=      5-min Rain = 0
KGHS 241940Z 23007KT 23/M01 A3004 RMK A01 T02331011  RH  020%=      5-min Rain = 0
KGHS 241945Z 26004G11KT 23/M03 A3005 RMK A01 T02321025  RH  018%=      5-min Rain = 0
KGHS 241950Z 29006G13KT 23/M01 A3004 RMK A01 T02331007  RH  020%=      5-min Rain = 0
KGHS 241955Z 26003KT 24/M01 A3004 RMK A01 T02351012  RH  019%=      5-min Rain = 0
KGHS 242000Z 30004KT 24/M01 A3004 RMK A01 T02371005  RH  020%=      5-min Rain = 0
KGHS 242005Z 30006KT 24/M01 A3004 RMK A01 T02381006  RH  020%=      5-min Rain = 0
KGHS 242010Z 28006KT 24/M01 A3003 RMK A01 T02381007  RH  020%=      5-min Rain = 0
KGHS 242015Z 28006KT 24/M01 A3003 RMK A01 T02391012  RH  019%=      5-min Rain = 0
KGHS 242020Z 24006KT 24/M01 A3003 RMK A01 T02401014  RH  019%=      5-min Rain = 0
KGHS 242025Z 25005KT 24/M01 A3003 RMK A01 T02411011  RH  019%=      5-min Rain = 0
KGHS 242030Z 28003G8KT 24/M01 A3003 RMK A01 T02421013  RH  019%=      5-min Rain = 0
KGHS 242035Z 19002KT 24/M02 A3003 RMK A01 T02441015  RH  018%=      5-min Rain = 0
KGHS 242040Z 25007KT 25/M02 A3002 RMK A01 T02461016  RH  018%=      5-min Rain = 0
KGHS 242045Z 29003KT 24/M02 A3002 RMK A01 T02441018  RH  018%=      5-min Rain = 0
KGHS 242050Z 29006KT 25/M01 A3002 RMK A01 T02471005  RH  019%=      5-min Rain = 0
KGHS 242055Z 31006KT 25/M00 A3002 RMK A01 T02471004  RH  019%=      5-min Rain = 0
KGHS 242100Z 23003G8KT 25/M01 A3002 RMK A01 T02491011  RH  018%=      5-min Rain = 0
KGHS 242105Z 27008KT 25/M01 A3002 RMK A01 T02531007  RH  018%=      5-min Rain = 0
KGHS 242110Z 25007KT 25/M02 A3002 RMK A01 T02481018  RH  017%=      5-min Rain = 0
KGHS 242115Z 24009G14KT 25/M03 A3002 RMK A01 T02481028  RH  016%=      5-min Rain = 0
KGHS 242120Z 23006KT 24/M03 A3002 RMK A01 T02441029  RH  016%=      5-min Rain = 0
KGHS 242125Z 26004KT 25/M02 A3002 RMK A01 T02481020  RH  017%=      5-min Rain = 0
KGHS 242130Z 27008KT 25/M02 A3002 RMK A01 T02491022  RH  017%=      5-min Rain = 0
KGHS 242135Z 28008G13KT 25/M03 A3002 RMK A01 T02521027  RH  016%=      5-min Rain = 0
KGHS 242140Z 27008G13KT 25/M03 A3001 RMK A01 T02491034  RH  015%=      5-min Rain = 0
KGHS 242145Z 27007KT 25/M03 A3001 RMK A01 T02481032  RH  016%=      5-min Rain = 0
KGHS 242150Z 28007KT 25/M03 A3001 RMK A01 T02501032  RH  015%=      5-min Rain = 0
KGHS 242155Z 23006KT 25/M04 A3002 RMK A01 T02521036  RH  015%=      5-min Rain = 0
KGHS 242200Z 25006KT 26/M04 A3001 RMK A01 T02551041  RH  014%=      5-min Rain = 0
KGHS 242205Z 31007G12KT 25/M04 A3001 RMK A01 T02521038  RH  015%=      5-min Rain = 0
KGHS 242210Z 31007KT 25/M03 A3001 RMK A01 T02511030  RH  016%=      5-min Rain = 0
KGHS 242215Z 29007G13KT 25/M02 A3001 RMK A01 T02501023  RH  016%=      5-min Rain = 0
KGHS 242220Z 26004KT 25/M02 A3001 RMK A01 T02531023  RH  016%=      5-min Rain = 0
KGHS 242225Z 22004KT 25/M04 A3001 RMK A01 T02531042  RH  014%=      5-min Rain = 0
KGHS 242230Z 27003G8KT 25/M04 A3001 RMK A01 T02541035  RH  015%=      5-min Rain = 0
KGHS 242235Z 30007KT 25/M03 A3001 RMK A01 T02541025  RH  016%=      5-min Rain = 0
KGHS 242240Z 30007KT 25/M03 A3001 RMK A01 T02511028  RH  016%=      5-min Rain = 0
KGHS 242245Z 32005KT 25/M03 A3001 RMK A01 T02491027  RH  016%=      5-min Rain = 0
KGHS 242250Z 31005KT 25/M02 A3001 RMK A01 T02521024  RH  016%=      5-min Rain = 0
KGHS 242255Z 34005KT 25/M03 A3001 RMK A01 T02511026  RH  016%=      5-min Rain = 0
KGHS 242300Z 27002KT 25/M03 A3001 RMK A01 T02501030  RH  016%=      5-min Rain = 0
KGHS 242305Z 25003G8KT 25/M03 A3001 RMK A01 T02541029  RH  015%=      5-min Rain = 0
KGHS 242310Z 31010KT 25/M02 A3001 RMK A01 T02521023  RH  016%=      5-min Rain = 0
KGHS 242315Z 31008KT 25/M02 A3001 RMK A01 T02481022  RH  017%=      5-min Rain = 0
KGHS 242320Z 34007KT 25/M03 A3001 RMK A01 T02461028  RH  016%=      5-min Rain = 0
KGHS 242325Z 35006KT 24/M03 A3001 RMK A01 T02441025  RH  017%=      5-min Rain = 0
KGHS 242330Z 33008KT 24/M03 A3001 RMK A01 T02441025  RH  017%=      5-min Rain = 0
KGHS 242335Z 35007KT 24/M02 A3001 RMK A01 T02431024  RH  017%=      5-min Rain = 0
KGHS 242340Z 36006KT 24/M03 A3001 RMK A01 T02421028  RH  017%=      5-min Rain = 0
KGHS 242345Z 00005KT 24/M03 A3001 RMK A01 T02411033  RH  016%=      5-min Rain = 0
KGHS 242350Z 32008G13KT 24/M03 A3001 RMK A01 T02411026  RH  017%=      5-min Rain = 0
KGHS 242355Z 33009KT 24/M03 A3001 RMK A01 T02411027  RH  017%=      5-min Rain = 0
KGHS 250000Z 34008KT 24/M03 A3001 RMK A01 T02401029  RH  017%=      5-min Rain = 0
KGHS 250005Z 35012G17KT 24/M01 A3001 RMK A01 T02381013  RH  019%=      5-min Rain = 0
KGHS 250010Z 01010KT 23/M00 A3002 RMK A01 T02321004  RH  021%=      5-min Rain = 0
KGHS 250015Z 01011KT 23/M00 A3002 RMK A01 T02271001  RH  022%=      5-min Rain = 0
KGHS 250020Z 01011KT 22/00 A3002 RMK A01 T02240003  RH  023%=      5-min Rain = 0
KGHS 250025Z 01011KT 22/00 A3002 RMK A01 T02220004  RH  024%=      5-min Rain = 0
KGHS 250030Z 01011KT 22/00 A3002 RMK A01 T02200003  RH  024%=      5-min Rain = 0
KGHS 250035Z 01011KT 22/00 A3002 RMK A01 T02170002  RH  024%=      5-min Rain = 0
KGHS 250040Z 01011KT 22/00 A3002 RMK A01 T02150002  RH  024%=      5-min Rain = 0
KGHS 250045Z 01011KT 21/00 A3002 RMK A01 T02130001  RH  025%=      5-min Rain = 0
KGHS 250050Z 01010KT 21/00 A3002 RMK A01 T02110002  RH  025%=      5-min Rain = 0
KGHS 250055Z 02010KT 21/00 A3002 RMK A01 T02100003  RH  025%=      5-min Rain = 0
KGHS 250100Z 01011KT 21/00 A3002 RMK A01 T02090001  RH  025%=      5-min Rain = 0
KGHS 250105Z 01011KT 21/00 A3002 RMK A01 T02080001  RH  025%=      5-min Rain = 0
KGHS 250110Z 01012KT 21/00 A3002 RMK A01 T02080001  RH  025%=      5-min Rain = 0
KGHS 250115Z 01012KT 20/00 A3002 RMK A01 T02040002  RH  026%=      5-min Rain = 0
KGHS 250120Z 02010KT 20/01 A3002 RMK A01 T01980007  RH  028%=      5-min Rain = 0
KGHS 250125Z 03010KT 19/01 A3003 RMK A01 T01880009  RH  031%=      5-min Rain = 0
KGHS 250130Z 03011KT 19/01 A3003 RMK A01 T01870005  RH  030%=      5-min Rain = 0
KGHS 250135Z 03012KT 19/00 A3003 RMK A01 T01870004  RH  030%=      5-min Rain = 0
KGHS 250140Z 03012KT 19/M00 A3003 RMK A01 T01901001  RH  028%=      5-min Rain = 0
KGHS 250145Z 02011KT 20/M01 A3003 RMK A01 T01971006  RH  026%=      5-min Rain = 0
KGHS 250150Z 03011KT 20/00 A3003 RMK A01 T019600-0  RH  027%=      5-min Rain = 0
KGHS 250155Z 04011KT 19/00 A3003 RMK A01 T01850002  RH  029%=      5-min Rain = 0
KGHS 250200Z 04011KT 19/M00 A3004 RMK A01 T01851002  RH  029%=      5-min Rain = 0
KGHS 250205Z 03011KT 19/M00 A3004 RMK A01 T01881004  RH  028%=      5-min Rain = 0
KGHS 250210Z 03012KT 19/M00 A3004 RMK A01 T01871002  RH  028%=      5-min Rain = 0
KGHS 250215Z 04010KT 18/M00 A3004 RMK A01 T01841004  RH  028%=      5-min Rain = 0
KGHS 250220Z 11005KT 18/M00 A3005 RMK A01 T01821003  RH  029%=      5-min Rain = 0
KGHS 250225Z 09004KT 18/M01 A3005 RMK A01 T01811005  RH  029%=      5-min Rain = 0
KGHS 250230Z 06004KT 19/M01 A3005 RMK A01 T01881009  RH  027%=      5-min Rain = 0
KGHS 250235Z 06005KT 19/M01 A3005 RMK A01 T01901007  RH  027%=      5-min Rain = 0
KGHS 250240Z 06007KT 19/M01 A3005 RMK A01 T01871006  RH  028%=      5-min Rain = 0
KGHS 250245Z 06007KT 19/M01 A3006 RMK A01 T01861007  RH  027%=      5-min Rain = 0
KGHS 250250Z 07007KT 18/M01 A3006 RMK A01 T01841006  RH  028%=      5-min Rain = 0
KGHS 250255Z 08005KT 18/M01 A3007 RMK A01 T01821005  RH  029%=      5-min Rain = 0
KGHS 250300Z 07006KT 18/M00 A3007 RMK A01 T01791003  RH  029%=      5-min Rain = 0
KGHS 250305Z 09006KT 18/M00 A3007 RMK A01 T01781001  RH  030%=      5-min Rain = 0
KGHS 250310Z 09006KT 18/00 A3007 RMK A01 T01770002  RH  031%=      5-min Rain = 0
KGHS 250315Z 08006KT 18/01 A3008 RMK A01 T01780011  RH  033%=      5-min Rain = 0
KGHS 250320Z 08005KT 18/02 A3008 RMK A01 T01750019  RH  036%=      5-min Rain = 0
KGHS 250325Z 08005KT 17/03 A3008 RMK A01 T01740029  RH  039%=      5-min Rain = 0
KGHS 250330Z 08007KT 17/04 A3008 RMK A01 T01720035  RH  041%=      5-min Rain = 0
KGHS 250335Z 09007KT 17/04 A3008 RMK A01 T01690037  RH  042%=      5-min Rain = 0
KGHS 250340Z 09007KT 17/04 A3009 RMK A01 T01680038  RH  043%=      5-min Rain = 0
KGHS 250345Z 09007KT 17/04 A3009 RMK A01 T01670039  RH  043%=      5-min Rain = 0
KGHS 250350Z 10007KT 17/04 A3009 RMK A01 T01650040  RH  044%=      5-min Rain = 0
KGHS 250355Z 10006KT 17/04 A3009 RMK A01 T01650041  RH  044%=      5-min Rain = 0
KGHS 250400Z 11006KT 17/04 A3009 RMK A01 T01650041  RH  044%=      5-min Rain = 0
KGHS 250405Z 11006KT 17/04 A3009 RMK A01 T01660041  RH  044%=      5-min Rain = 0
KGHS 250410Z 11007KT 17/04 A3009 RMK A01 T01660041  RH  044%=      5-min Rain = 0
KGHS 250415Z 12007KT 17/04 A3009 RMK A01 T01650041  RH  045%=      5-min Rain = 0
KGHS 250420Z 11007KT 16/04 A3009 RMK A01 T01640042  RH  045%=      5-min Rain = 0
KGHS 250425Z 11007KT 16/04 A301 RMK A01 T01640042  RH  045%=      5-min Rain = 0
KGHS 250430Z 10006KT 16/04 A301 RMK A01 T01630042  RH  045%=      5-min Rain = 0
KGHS 250435Z 10005KT 16/04 A301 RMK A01 T01610042  RH  046%=      5-min Rain = 0
KGHS 250440Z 11007KT 16/04 A301 RMK A01 T01610043  RH  046%=      5-min Rain = 0
KGHS 250445Z 11007KT 16/04 A301 RMK A01 T01610043  RH  046%=      5-min Rain = 0
KGHS 250450Z 10006KT 16/04 A301 RMK A01 T01600043  RH  046%=      5-min Rain = 0
KGHS 250455Z 10006KT 16/04 A301 RMK A01 T01580043  RH  047%=      5-min Rain = 0

Page generated in 0.0089 seconds.